地図

経路データ

SID SEASON NUMBER BASIN SUBBASIN NAME ISO_TIME NATURE LAT LON WMO_WIND WMO_PRES WMO_AGENCY TRACK_TYPE DIST2LAND LANDFALL IFLAG USA_AGENCY USA_ATCF_ID USA_LAT USA_LON USA_RECORD USA_STATUS USA_WIND USA_PRES USA_SSHS USA_R34_NE USA_R34_SE USA_R34_SW USA_R34_NW USA_R50_NE USA_R50_SE USA_R50_SW USA_R50_NW USA_R64_NE USA_R64_SE USA_R64_SW USA_R64_NW USA_POCI USA_ROCI USA_RMW USA_EYE TOKYO_LAT TOKYO_LON TOKYO_GRADE TOKYO_WIND TOKYO_PRES TOKYO_R50_DIR TOKYO_R50_LONG TOKYO_R50_SHORT TOKYO_R30_DIR TOKYO_R30_LONG TOKYO_R30_SHORT TOKYO_LAND CMA_LAT CMA_LON CMA_CAT CMA_WIND CMA_PRES HKO_LAT HKO_LON HKO_CAT HKO_WIND HKO_PRES NEWDELHI_LAT NEWDELHI_LON NEWDELHI_GRADE NEWDELHI_WIND NEWDELHI_PRES NEWDELHI_CI NEWDELHI_DP NEWDELHI_POCI REUNION_LAT REUNION_LON REUNION_TYPE REUNION_WIND REUNION_PRES REUNION_TNUM REUNION_CI REUNION_RMW REUNION_R34_NE REUNION_R34_SE REUNION_R34_SW REUNION_R34_NW REUNION_R50_NE REUNION_R50_SE REUNION_R50_SW REUNION_R50_NW REUNION_R64_NE REUNION_R64_SE REUNION_R64_SW REUNION_R64_NW BOM_LAT BOM_LON BOM_TYPE BOM_WIND BOM_PRES BOM_TNUM BOM_CI BOM_RMW BOM_R34_NE BOM_R34_SE BOM_R34_SW BOM_R34_NW BOM_R50_NE BOM_R50_SE BOM_R50_SW BOM_R50_NW BOM_R64_NE BOM_R64_SE BOM_R64_SW BOM_R64_NW BOM_ROCI BOM_POCI BOM_EYE BOM_POS_METHOD BOM_PRES_METHOD NADI_LAT NADI_LON NADI_CAT NADI_WIND NADI_PRES WELLINGTON_LAT WELLINGTON_LON WELLINGTON_WIND WELLINGTON_PRES DS824_LAT DS824_LON DS824_STAGE DS824_WIND DS824_PRES TD9636_LAT TD9636_LON TD9636_STAGE TD9636_WIND TD9636_PRES TD9635_LAT TD9635_LON TD9635_WIND TD9635_PRES TD9635_ROCI NEUMANN_LAT NEUMANN_LON NEUMANN_CLASS NEUMANN_WIND NEUMANN_PRES MLC_LAT MLC_LON MLC_CLASS MLC_WIND MLC_PRES USA_GUST BOM_GUST BOM_GUST_PER REUNION_GUST REUNION_GUST_PER USA_SEAHGT USA_SEARAD_NE USA_SEARAD_SE USA_SEARAD_SW USA_SEARAD_NW STORM_SPEED STORM_DIR
1901343S10067 1902 50 SI MM NOT_NAMED 1901-12-09 00:00:00 TS -9.70000 67.4000 main 1561 1500 _________O____ -1 -9.70000 67.4000 TC 12 234
1901343S10067 1902 50 SI MM NOT_NAMED 1901-12-09 03:00:00 TS -10.0576 66.9052 main 1491 1431 _________P____ -1 -10.0576 66.9052 TC 12 235
1901343S10067 1902 50 SI MM NOT_NAMED 1901-12-09 06:00:00 TS -10.4000 66.4000 main 1431 1370 _________O____ -1 -10.4000 66.4000 TC 12 237
1901343S10067 1902 50 SI MM NOT_NAMED 1901-12-09 09:00:00 TS -10.7150 65.8850 main 1370 1310 _________P____ -1 -10.7150 65.8850 TC 12 239
1901343S10067 1902 50 SI MM NOT_NAMED 1901-12-09 12:00:00 TS -11.0000 65.4000 main 1310 1265 _________O____ -1 -11.0000 65.4000 TC 10 238
1901343S10067 1902 50 SI MM NOT_NAMED 1901-12-09 15:00:00 TS -11.2573 64.9923 main 1256 1212 _________P____ -1 -11.2573 64.9923 TC 9 237
1901343S10067 1902 50 SI MM NOT_NAMED 1901-12-09 18:00:00 TS -11.5000 64.6000 main 1212 1159 _________O____ -1 -11.5000 64.6000 TC 10 239
1901343S10067 1902 50 SI MM NOT_NAMED 1901-12-09 21:00:00 TS -11.7726 64.1276 main 1153 1110 _________P____ -1 -11.7726 64.1276 TC 10 240
1901343S10067 1902 50 SI MM NOT_NAMED 1901-12-10 00:00:00 TS -12.0000 63.7000 main 1110 1082 _________O____ -1 -12.0000 63.7000 TC 8 244
1901343S10067 1902 50 SI MM NOT_NAMED 1901-12-10 03:00:00 TS -12.1149 63.4198 main 1082 1061 _________P____ -1 -12.1149 63.4198 TC 5 248
1901343S10067 1902 50 SI MM NOT_NAMED 1901-12-10 06:00:00 TS -12.2000 63.2000 main 1061 1040 _________O____ -1 -12.2000 63.2000 TC 5 244
1901343S10067 1902 50 SI MM NOT_NAMED 1901-12-10 09:00:00 TS -12.3425 62.9500 main 1040 1003 _________P____ -1 -12.3425 62.9500 TC 6 238
1901343S10067 1902 50 SI MM NOT_NAMED 1901-12-10 12:00:00 TS -12.5000 62.7000 main 1003 983 _________O____ -1 -12.5000 62.7000 TC 6 238
1901343S10067 1902 50 SI MM NOT_NAMED 1901-12-10 15:00:00 TS -12.6425 62.4499 main 977 947 _________P____ -1 -12.6425 62.4499 TC 6 238
1901343S10067 1902 50 SI MM NOT_NAMED 1901-12-10 18:00:00 TS -12.8000 62.2000 main 947 917 _________O____ -1 -12.8000 62.2000 TC 6 234
1901343S10067 1902 50 SI MM NOT_NAMED 1901-12-10 21:00:00 TS -12.9925 61.9575 main 917 881 _________P____ -1 -12.9925 61.9575 TC 6 231
1901343S10067 1902 50 SI MM NOT_NAMED 1901-12-11 00:00:00 TS -13.2000 61.7000 main 881 846 _________O____ -1 -13.2000 61.7000 TC 7 232
1901343S10067 1902 50 SI MM NOT_NAMED 1901-12-11 03:00:00 TS -13.4000 61.4149 main 846 812 _________P____ -1 -13.4000 61.4149 TC 7 236
1901343S10067 1902 50 SI MM NOT_NAMED 1901-12-11 06:00:00 TS -13.6000 61.1000 main 812 778 _________O____ -1 -13.6000 61.1000 TC 8 238
1901343S10067 1902 50 SI MM NOT_NAMED 1901-12-11 09:00:00 TS -13.7999 60.7649 main 778 740 _________P____ -1 -13.7999 60.7649 TC 8 240
1901343S10067 1902 50 SI MM NOT_NAMED 1901-12-11 12:00:00 TS -14.0000 60.4000 main 740 703 _________O____ -1 -14.0000 60.4000 TC 8 241
1901343S10067 1902 50 SI MM NOT_NAMED 1901-12-11 15:00:00 TS -14.1999 60.0149 main 703 668 _________P____ -1 -14.1999 60.0149 TC 9 243
1901343S10067 1902 50 SI MM NOT_NAMED 1901-12-11 18:00:00 TS -14.4000 59.6000 main 668 635 _________O____ -1 -14.4000 59.6000 TC 9 245
1901343S10067 1902 50 SI MM NOT_NAMED 1901-12-11 21:00:00 TS -14.5698 59.1796 main 635 602 _________P____ -1 -14.5698 59.1796 TC 10 245
1901343S10067 1902 50 SI MM NOT_NAMED 1901-12-12 00:00:00 TS -14.8000 58.7000 main 602 561 _________O____ -1 -14.8000 58.7000 TC 12 240
1901343S10067 1902 50 SI MM NOT_NAMED 1901-12-12 03:00:00 TS -15.1625 58.1225 main 549 503 _________P____ -1 -15.1625 58.1225 TC 14 235
1901343S10067 1902 50 SI MM NOT_NAMED 1901-12-12 06:00:00 TS -15.6000 57.5000 main 503 461 _________O____ -1 -15.6000 57.5000 TC 15 234
1901343S10067 1902 50 SI MM NOT_NAMED 1901-12-12 09:00:00 TS -16.0349 56.8923 main 463 422 _________P____ -1 -16.0349 56.8923 TC 15 232
1901343S10067 1902 50 SI MM NOT_NAMED 1901-12-12 12:00:00 TS -16.5000 56.3000 main 422 390 _________O____ -1 -16.5000 56.3000 TC 15 229
1901343S10067 1902 50 SI MM NOT_NAMED 1901-12-12 15:00:00 TS -16.9923 55.7422 main 395 374 _________P____ -1 -16.9923 55.7422 TC 15 226
1901343S10067 1902 50 SI MM NOT_NAMED 1901-12-12 18:00:00 TS -17.5000 55.2000 main 378 341 _________O____ -1 -17.5000 55.2000 TC 15 227
1901343S10067 1902 50 SI MM NOT_NAMED 1901-12-12 21:00:00 TS -17.9850 54.6347 main 343 306 _________P____ -1 -17.9850 54.6347 TC 15 226
1901343S10067 1902 50 SI MM NOT_NAMED 1901-12-13 00:00:00 TS -18.5000 54.1000 main 306 279 _________O____ -1 -18.5000 54.1000 TC 15 222
1901343S10067 1902 50 SI MM NOT_NAMED 1901-12-13 03:00:00 TS -19.0625 53.6049 main 276 259 _________P____ -1 -19.0625 53.6049 TC 15 215
1901343S10067 1902 50 SI MM NOT_NAMED 1901-12-13 06:00:00 TS -19.7000 53.2000 main 260 250 _________O____ -1 -19.7000 53.2000 TC 15 207
1901343S10067 1902 50 SI MM NOT_NAMED 1901-12-13 09:00:00 TS -20.4199 52.8678 main 251 248 _________P____ -1 -20.4199 52.8678 TC 16 197
1901343S10067 1902 50 SI MM NOT_NAMED 1901-12-13 12:00:00 TS -21.2000 52.7000 main 259 259 _________O____ -1 -21.2000 52.7000 TC 16 185
1901343S10067 1902 50 SI MM NOT_NAMED 1901-12-13 15:00:00 TS -21.9998 52.7025 main 277 277 _________P____ -1 -21.9998 52.7025 TC 16 173
1901343S10067 1902 50 SI MM NOT_NAMED 1901-12-13 18:00:00 TS -22.8000 52.9000 main 298 298 _________O____ -1 -22.8000 52.9000 TC 17 163
1901343S10067 1902 50 SI MM NOT_NAMED 1901-12-13 21:00:00 TS -23.5798 53.2176 main 335 335 _________P____ -1 -23.5798 53.2176 TC 17 154
1901343S10067 1902 50 SI MM NOT_NAMED 1901-12-14 00:00:00 TS -24.3000 53.7000 main 373 373 _________O____ -1 -24.3000 53.7000 TC 17 144
1901343S10067 1902 50 SI MM NOT_NAMED 1901-12-14 03:00:00 TS -24.9375 54.3052 main 413 413 _________P____ -1 -24.9375 54.3052 TC 17 136
1901343S10067 1902 50 SI MM NOT_NAMED 1901-12-14 06:00:00 TS -25.5000 55.0000 main 462 462 _________O____ -1 -25.5000 55.0000 TC 17 131
1901343S10067 1902 50 SI MM NOT_NAMED 1901-12-14 09:00:00 TS -26.0371 55.6854 main 514 514 _________P____ -1 -26.0371 55.6854 TC 16 128
1901343S10067 1902 50 SI MM NOT_NAMED 1901-12-14 12:00:00 TS -26.5000 56.4000 main 575 575 _________O____ -1 -26.5000 56.4000 TC 16 123
1901343S10067 1902 50 SI MM NOT_NAMED 1901-12-14 15:00:00 TS -26.8872 57.1430 main 633 633 _________P____ -1 -26.8872 57.1430 TC 15 118
1901343S10067 1902 50 SI MM NOT_NAMED 1901-12-14 18:00:00 TS -27.2000 57.9000 main 688 688 _________O____ -1 -27.2000 57.9000 TC 15 113
1901343S10067 1902 50 SI MM NOT_NAMED 1901-12-14 21:00:00 TS -27.4632 58.6519 main 750 750 _________P____ -1 -27.4632 58.6519 TC 14 111
1901343S10067 1902 50 SI MM NOT_NAMED 1901-12-15 00:00:00 TS -27.7000 59.4000 main 801 _________O____ -1 -27.7000 59.4000 TC 14 110

IBTrACS Databaseについて

本データベースは、米国NOAAが公開する1842年以降の世界の熱帯低気圧のベストトラックデータアーカイブInternational Best Track Archive for Climate Stewardship (IBTrACS)を、ウェブで閲覧しやすい形式に変換したものです。

最終更新日:2021-11-26